KLBF/LBF METAR and TAF weather

Enter ICAO airport designator
Station Type Date Time Source
KLBF METAR 2021/05/17 21:53 UTC NOAA

KLBF 172153Z AUTO 10005KT 9SM -RA SCT019 OVC025 16/13 A3001 RMK AO2 SLP148 P0005 T01560133


Station Type Date Time Source
KLBF Decoded METAR 2021/05/17 21:53 UTC NOAA

NORTH PLATTE REGIONAL AIRPORT , NE, United States (KLBF) 41-07N 100-40W 847M
May 17, 2021 - 05:53 PM EDT / 2021.05.17 2153 UTC
Wind: from the E (100 degrees) at 6 MPH (5 KT):0
Visibility: 9 mile(s):0
Sky conditions: overcast
Weather: light rain
Precipitation last hour: 0.05 inches
Temperature: 60.1 F (15.6 C)
Dew Point: 55.9 F (13.3 C)
Relative Humidity: 86%
Pressure (altimeter): 30.01 in. Hg (1016 hPa)
ob: KLBF 172153Z AUTO 10005KT 9SM -RA SCT019 OVC025 16/13 A3001 RMK AO2 SLP148 P0005 T01560133
cycle: 22

Station Type Date Time Source
KLBF TAF 2021/05/17 22:42 UTC NOAA

TAF COR KLBF 172139Z 1722/1818 11007KT P6SM -RA SCT018 OVC025
FM180000 10011KT P6SM OVC025
FM180900 11007KT P6SM -RA OVC005
FM181200 12007KT 2SM -RA BR OVC004
FM181700 14011KT P6SM BKN012 BKN028

Example: see airport list